Airfield :
LOGIN :

Register | Disclaimer

   EN    FR    IT 

 










Legend :    VFR   Marginal VFR   IFR   Intensive IFR   Very Intensive IFR
Visi :
Ceiling :
>= 8 km
>= 3000ft
5 to 8 km
1000 to 3000 ft
1500m to 5 km
500 to 1000 ft
800 to 1500m
200 to 500 ft
< 800m
< 200 ft
Symbols :   Thunderstorms  Fog  Heavy snow  Heavy precipitations  Wind > 20 kt
SIGMETs :     Misc.  Thunderstorms  Icing  Turbulence  Mountain Waves  Volcanic Ashes







- Airport Elevation : 278 ft
- IATA code : RJK


LDRI - Rijeka

CURRENT METAR :
  • 240930Z 12007KT 9999 -RA FEW040 BKN056 OVC075 21/14 Q1017

EXPIRED METARs :
  • 240900Z VRB02KT 9999 FEW050 BKN059 OVC075 22/14 Q1017
  • 240830Z VRB02KT 9999 FEW050 SCT059 BKN072 20/15 Q1017
  • 240800Z 00000KT 9999 FEW050 SCT059 BKN072 21/14 Q1017
  • 240730Z 34003KT 250V050 9999 SCT052 BKN066 20/14 Q1017
  • 240700Z 28004KT 240V330 9999 SCT052 BKN066 20/15 Q1017

TAF TAF LDRI
Valid from the 24 at 06:00 until the 25 at 06:00 UTC


240525Z 2406/2506 VRB02KT 9999 FEW050 TX24/2412Z TN16/2504Z
PROB40
TEMPO 2411/2415 32008KT
PROB30
TEMPO 2411/2416 TS FEW040CB SCT045
PROB40
TEMPO 2418/2502 TSRA FEW035CB BKN040
BECMG 2421/2423 04010KT
TEMPO 2500/2506 04015G30KT
PROB40
TEMPO 2502/2506 32010KT
No reported NOTAMs for that airfield.
1 SIGMET reported for the Zagreb FIR (LDZO) :
 
Embedded thunderstorms
LDZO SIGMET 1 VALID 240916/241100 LDZA
LDZO ZAGREB FIR EMBD TS FCST N OF N4510 AND W OF E01512 TOP FL300 STNR NC=



MET'MAP, your aeronautical weather chart ! - Copyright ORBIFLY December 2007 - Disclaimer

ORBIFLY MET'MAP TEAM :

Programming & Development : Alexandra Zaïnal
Concept & Development : Baudouin d'Aumeries
Co-Development & Prog : Marc-Olivier Méhu
Technical & hardware support : Manuel Goepfert

Contact : metmap@orbifly.com




SOURCES & CREDITS :

   NOAA